Time;durP1;ratioP1;P1;durP2;ratioP2;P2;SDS_P1;SDS_P2;PMS_P1;PMS_P2;Temp;Humidity;BMP_temperature;BMP_pressure;BME280_temperature;BME280_humidity;BME280_pressure;Samples;Min_cycle;Max_cycle;Signal;HPM_P1;HPM_P2
2023/05/01 00:03:24;;;;;;;20.00;10.20;;;;;;;1.67;70.97;100432.50;217646;1262;139494;-65
2023/05/01 00:08:29;;;;;;;19.50;12.00;;;;;;;1.54;71.06;100430.52;217845;1260;140404;-66
2023/05/01 00:13:33;;;;;;;17.70;11.30;;;;;;;1.48;71.59;100422.84;218015;1260;141273;-65
2023/05/01 00:18:38;;;;;;;23.50;10.60;;;;;;;1.44;71.36;100424.98;217246;1262;139502;-65
2023/05/01 00:23:43;;;;;;;22.10;11.30;;;;;;;1.39;71.53;100423.95;217729;1260;140509;-65
2023/05/01 00:28:49;;;;;;;15.50;9.70;;;;;;;1.34;71.57;100424.58;217281;1260;140232;-66
2023/05/01 00:33:55;;;;;;;18.20;10.10;;;;;;;1.28;71.85;100423.39;218191;1261;139985;-65
2023/05/01 00:38:59;;;;;;;15.90;9.50;;;;;;;1.24;71.99;100421.05;217209;1262;140330;-66
2023/05/01 00:44:05;;;;;;;22.40;12.00;;;;;;;1.20;72.00;100420.45;217819;1259;140628;-66
2023/05/01 00:49:09;;;;;;;20.50;11.40;;;;;;;1.12;72.58;100418.52;217537;1262;141608;-64
2023/05/01 00:59:05;;;;;;;23.00;13.30;;;;;;;1.03;72.48;100412.69;214684;1299;636161;-68
2023/05/01 01:04:09;;;;;;;22.20;12.90;;;;;;;0.92;72.89;100417.36;217131;1271;139626;-67
2023/05/01 01:09:17;;;;;;;24.40;11.90;;;;;;;0.86;72.96;100415.30;217358;1267;590595;-67
2023/05/01 01:14:41;;;;;;;26.20;14.10;;;;;;;0.82;72.79;100415.41;217396;1263;139672;-64
2023/05/01 01:20:36;;;;;;;21.60;14.30;;;;;;;0.73;72.95;100416.52;217974;1263;139350;-65
2023/05/01 01:26:02;;;;;;;21.80;15.70;;;;;;;0.66;73.48;100410.89;219620;1263;141258;-68
2023/05/01 01:31:19;;;;;;;27.40;16.40;;;;;;;0.69;73.45;100412.00;219179;1264;139320;-68
2023/05/01 01:36:42;;;;;;;26.10;13.20;;;;;;;0.72;73.71;100408.02;216716;1267;152993;-68
2023/05/01 01:41:50;;;;;;;21.80;14.30;;;;;;;0.72;73.58;100405.92;217394;1263;139394;-67
2023/05/01 01:46:55;;;;;;;25.00;14.00;;;;;;;0.69;73.87;100406.05;217714;1264;139758;-68
2023/05/01 01:52:02;;;;;;;28.20;14.70;;;;;;;0.67;73.98;100404.09;217422;1264;139990;-68
2023/05/01 01:57:08;;;;;;;24.20;13.50;;;;;;;0.66;73.69;100405.75;216995;1264;140459;-67
2023/05/01 02:02:17;;;;;;;24.00;13.70;;;;;;;0.56;73.71;100401.21;217557;1263;140347;-66
2023/05/01 02:07:23;;;;;;;27.80;15.40;;;;;;;0.47;74.01;100397.63;216752;1265;139418;-66
2023/05/01 02:12:29;;;;;;;20.30;12.60;;;;;;;0.44;73.87;100390.98;216992;1268;140572;-64
2023/05/01 02:17:35;;;;;;;27.30;16.10;;;;;;;0.38;73.96;100390.64;216609;1264;139543;-65
2023/05/01 02:22:42;;;;;;;20.80;12.60;;;;;;;0.33;74.39;100386.44;216807;1265;139485;-65
2023/05/01 02:27:54;;;;;;;28.90;16.10;;;;;;;0.32;74.49;100385.32;216784;1265;139885;-65
2023/05/01 02:32:59;;;;;;;30.00;16.70;;;;;;;0.27;74.45;100385.96;216580;1265;139513;-66
2023/05/01 02:38:05;;;;;;;28.10;14.10;;;;;;;0.26;74.86;100384.87;216984;1265;139580;-66
2023/05/01 02:43:13;;;;;;;25.20;15.50;;;;;;;0.21;74.70;100386.95;216915;1265;139291;-65
2023/05/01 02:48:22;;;;;;;26.80;15.30;;;;;;;0.16;74.73;100390.58;216941;1265;139591;-65
2023/05/01 02:53:28;;;;;;;22.40;13.50;;;;;;;0.09;74.71;100389.14;216799;1264;140348;-65
2023/05/01 02:58:34;;;;;;;27.70;17.10;;;;;;;0.05;74.83;100383.49;218667;1265;139634;-65
2023/05/01 03:03:39;;;;;;;20.30;12.50;;;;;;;0.05;75.08;100390.61;217594;1256;141340;-64
2023/05/01 03:08:44;;;;;;;28.50;15.70;;;;;;;0.02;74.81;100391.92;219508;1256;139461;-65
2023/05/01 03:13:48;;;;;;;19.00;12.50;;;;;;;-0.02;75.14;100391.69;218104;1257;139709;-64
2023/05/01 03:18:53;;;;;;;24.00;13.70;;;;;;;-0.04;75.03;100391.50;218733;1256;139812;-65
2023/05/01 03:23:58;;;;;;;22.20;14.10;;;;;;;-0.12;74.84;100388.27;219613;1255;139982;-65
2023/05/01 03:29:02;;;;;;;29.50;15.90;;;;;;;-0.18;75.00;100385.23;220483;1255;139495;-65
2023/05/01 03:34:06;;;;;;;22.40;15.20;;;;;;;-0.11;75.11;100385.70;219548;1260;139813;-68
2023/05/01 03:39:11;;;;;;;27.90;16.20;;;;;;;0.19;75.13;100379.23;220456;1255;140304;-67
2023/05/01 03:44:15;;;;;;;29.40;14.90;;;;;;;0.48;75.31;100378.95;219657;1256;139786;-67
2023/05/01 03:49:21;;;;;;;26.70;15.60;;;;;;;0.64;75.03;100382.62;219646;1256;139619;-67
2023/05/01 03:54:25;;;;;;;21.70;13.90;;;;;;;1.02;74.70;100375.40;219356;1255;140444;-67
2023/05/01 03:59:30;;;;;;;22.70;13.70;;;;;;;1.89;74.25;100377.94;217404;1256;139422;-67
2023/05/01 04:04:34;;;;;;;26.20;13.40;;;;;;;2.37;73.79;100374.85;218408;1256;141566;-67
2023/05/01 04:09:39;;;;;;;25.20;16.50;;;;;;;2.81;73.24;100376.17;218404;1257;139821;-67
2023/05/01 04:14:45;;;;;;;28.50;19.90;;;;;;;2.91;72.95;100370.91;217729;1256;139504;-67
2023/05/01 04:19:53;;;;;;;25.40;17.20;;;;;;;2.98;72.37;100371.16;217902;1256;139648;-67
2023/05/01 04:24:58;;;;;;;25.90;17.00;;;;;;;3.17;72.06;100371.17;218355;1256;151031;-66
2023/05/01 04:30:02;;;;;;;28.00;17.00;;;;;;;3.41;71.84;100371.55;217678;1256;141394;-65
2023/05/01 04:35:07;;;;;;;26.10;16.20;;;;;;;3.50;72.21;100368.42;217703;1256;139558;-65
2023/05/01 04:40:14;;;;;;;28.30;16.40;;;;;;;3.38;72.33;100375.03;219370;1259;139626;-65
2023/05/01 04:45:18;;;;;;;27.30;16.90;;;;;;;3.34;72.52;100371.08;218739;1256;220378;-64
2023/05/01 04:50:23;;;;;;;25.70;15.90;;;;;;;3.39;72.57;100375.40;218578;1256;163529;-65
2023/05/01 04:55:32;;;;;;;28.40;17.20;;;;;;;3.43;72.89;100371.21;219145;1256;139746;-65
2023/05/01 05:00:36;;;;;;;26.60;16.00;;;;;;;3.55;73.53;100371.02;218439;1256;139811;-65
2023/05/01 05:05:41;;;;;;;22.40;17.00;;;;;;;3.68;73.51;100374.56;218543;1256;140082;-64
2023/05/01 05:10:45;;;;;;;25.00;13.70;;;;;;;3.85;74.00;100380.77;219359;1255;139429;-65
2023/05/01 05:15:49;;;;;;;25.10;15.40;;;;;;;4.21;73.88;100380.67;220374;1255;139624;-67
2023/05/01 05:20:55;;;;;;;22.20;13.80;;;;;;;4.78;73.44;100372.71;220205;1255;140752;-67
2023/05/01 05:26:00;;;;;;;18.70;14.30;;;;;;;5.49;73.23;100364.96;220389;1256;139721;-66
2023/05/01 05:31:05;;;;;;;14.60;9.90;;;;;;;8.03;70.66;100357.89;219231;1255;140019;-68
2023/05/01 05:36:10;;;;;;;15.20;11.00;;;;;;;10.65;69.81;100350.06;218476;1258;139946;-67
2023/05/01 05:41:16;;;;;;;19.90;11.30;;;;;;;11.35;67.07;100355.63;217937;1257;141620;-68
2023/05/01 05:46:20;;;;;;;16.90;10.20;;;;;;;13.88;61.78;100339.29;219512;1256;140098;-70
2023/05/01 05:51:26;;;;;;;16.30;8.80;;;;;;;13.84;60.63;100340.89;218910;1258;140008;-68
2023/05/01 05:56:32;;;;;;;13.30;9.30;;;;;;;12.47;60.70;100346.38;218039;1256;139325;-69
2023/05/01 06:01:37;;;;;;;16.40;8.60;;;;;;;11.55;60.81;100345.66;219033;1256;141300;-66
2023/05/01 06:06:44;;;;;;;19.90;10.50;;;;;;;10.95;61.08;100345.41;218074;1256;140891;-66
2023/05/01 06:11:49;;;;;;;18.50;9.30;;;;;;;10.56;61.92;100341.99;218620;1258;139321;-66
2023/05/01 06:16:55;;;;;;;19.50;9.00;;;;;;;10.28;62.03;100337.86;217866;1260;141136;-66
2023/05/01 06:22:00;;;;;;;13.80;8.10;;;;;;;10.18;62.39;100343.50;218025;1258;138616;-67
2023/05/01 06:27:05;;;;;;;13.40;8.10;;;;;;;10.13;62.26;100347.99;218658;1258;140556;-66
2023/05/01 06:32:11;;;;;;;11.90;7.10;;;;;;;10.05;62.33;100345.77;217946;1260;140241;-65
2023/05/01 06:37:17;;;;;;;9.00;5.80;;;;;;;10.08;62.38;100343.08;218175;1256;139825;-68
2023/05/01 06:42:22;;;;;;;10.50;6.10;;;;;;;10.34;62.06;100347.48;218313;1257;139104;-67
2023/05/01 06:47:26;;;;;;;11.90;7.40;;;;;;;10.96;61.36;100344.28;218227;1256;139089;-67
2023/05/01 06:52:30;;;;;;;13.30;8.10;;;;;;;12.02;61.40;100346.23;218962;1256;139145;-68
2023/05/01 06:57:35;;;;;;;13.90;6.70;;;;;;;13.77;60.05;100334.69;219547;1256;140254;-68
2023/05/01 07:02:40;;;;;;;7.90;5.10;;;;;;;15.67;57.52;100327.78;218703;1256;140593;-67
2023/05/01 07:07:46;;;;;;;9.80;5.60;;;;;;;17.42;55.56;100326.99;218881;1256;139353;-69
2023/05/01 07:13:04;;;;;;;9.00;5.80;;;;;;;18.43;54.14;100321.11;219488;1256;139490;-68
2023/05/01 07:18:11;;;;;;;5.70;3.90;;;;;;;19.14;52.67;100325.11;220374;1254;141144;-70
2023/05/01 07:23:16;;;;;;;7.20;3.60;;;;;;;19.41;50.62;100329.30;220415;1256;139410;-68
2023/05/01 07:28:21;;;;;;;8.50;4.00;;;;;;;19.46;48.96;100329.77;220268;1256;140267;-70
2023/05/01 07:33:25;;;;;;;7.70;3.60;;;;;;;19.68;48.73;100328.09;219719;1256;139650;-69
2023/05/01 07:38:31;;;;;;;7.90;4.10;;;;;;;19.81;47.40;100330.60;219331;1256;139077;-69
2023/05/01 07:43:35;;;;;;;2.30;2.10;;;;;;;19.80;47.11;100331.05;218417;1256;139496;-70
2023/05/01 07:48:40;;;;;;;8.70;2.30;;;;;;;19.76;46.21;100333.78;218035;1256;139628;-67
2023/05/01 07:53:46;;;;;;;4.80;2.70;;;;;;;19.84;45.62;100336.39;219221;1256;139085;-69
2023/05/01 07:58:50;;;;;;;7.00;3.80;;;;;;;19.76;44.53;100333.73;218186;1260;138677;-71
2023/05/01 08:03:54;;;;;;;3.50;2.70;;;;;;;19.44;43.15;100333.23;218848;1256;139289;-67
2023/05/01 08:08:59;;;;;;;7.40;4.00;;;;;;;18.92;42.46;100331.36;218125;1260;139165;-69
2023/05/01 08:14:03;;;;;;;6.20;3.10;;;;;;;18.98;43.79;100329.54;218164;1260;139462;-69
2023/05/01 08:19:07;;;;;;;5.30;3.90;;;;;;;19.16;43.82;100332.56;218439;1257;139009;-69
2023/05/01 08:24:12;;;;;;;8.00;3.30;;;;;;;19.22;43.31;100332.75;218504;1256;138989;-68
2023/05/01 08:29:16;;;;;;;6.20;3.30;;;;;;;19.17;42.97;100334.41;217963;1256;139961;-68
2023/05/01 08:34:20;;;;;;;2.70;2.20;;;;;;;19.08;42.39;100333.73;217993;1260;139129;-69
2023/05/01 08:39:24;;;;;;;6.30;3.50;;;;;;;18.95;41.76;100327.88;218300;1256;139020;-68
2023/05/01 08:44:30;;;;;;;3.80;3.10;;;;;;;18.60;40.95;100322.04;217971;1260;138758;-67
2023/05/01 08:49:37;;;;;;;4.50;3.00;;;;;;;18.71;42.14;100321.31;218281;1256;139587;-68
2023/05/01 08:54:44;;;;;;;5.20;3.10;;;;;;;18.87;41.11;100318.41;219055;1257;139109;-68
2023/05/01 08:59:52;;;;;;;11.10;3.80;;;;;;;18.88;41.70;100315.55;219088;1257;140742;-67
2023/05/01 09:04:59;;;;;;;7.60;2.50;;;;;;;18.77;41.17;100308.93;219210;1257;140185;-66
2023/05/01 09:10:05;;;;;;;4.90;3.20;;;;;;;18.53;40.81;100301.34;220222;1256;139025;-66
2023/05/01 09:15:11;;;;;;;3.30;2.20;;;;;;;18.72;41.68;100297.27;219465;1255;139365;-68
2023/05/01 09:20:18;;;;;;;3.40;3.10;;;;;;;18.88;41.57;100290.09;219558;1256;138869;-67
2023/05/01 09:25:23;;;;;;;;;;;;;;;18.96;41.47;100291.25;220296;1255;139021;-67
2023/05/01 09:30:33;;;;;;;5.00;2.60;;;;;;;19.07;41.00;100283.14;219589;1256;126382;-67
2023/05/01 09:35:55;;;;;;;9.10;3.60;;;;;;;19.23;40.95;100286.64;220336;1256;139773;-67
2023/05/01 09:41:05;;;;;;;3.90;3.30;;;;;;;19.13;40.65;100282.15;219691;1256;140259;-67
2023/05/01 09:46:10;;;;;;;3.50;2.60;;;;;;;19.28;41.14;100274.29;218819;1257;139162;-74
2023/05/01 09:51:33;;;;;;;7.40;3.40;;;;;;;19.24;39.70;100275.82;217633;1256;141349;-75
2023/05/01 09:56:47;;;;;;;5.20;3.10;;;;;;;18.90;39.77;100275.67;217581;1260;138924;-73
2023/05/01 10:01:52;;;;;;;3.60;3.30;;;;;;;18.91;40.04;100273.01;218979;1256;139430;-68
2023/05/01 10:06:58;;;;;;;6.30;3.20;;;;;;;19.09;39.61;100273.14;217982;1259;139458;-68
2023/05/01 10:12:02;;;;;;;4.20;3.10;;;;;;;19.22;39.43;100265.89;218870;1260;138723;-68
2023/05/01 10:17:19;;;;;;;4.50;2.70;;;;;;;19.48;38.00;100255.20;217677;1256;139389;-70
2023/05/01 10:22:23;;;;;;;2.90;2.00;;;;;;;19.67;37.31;100243.55;217930;1256;139197;-68
2023/05/01 10:27:27;;;;;;;3.50;2.60;;;;;;;19.82;37.89;100239.70;218654;1256;138994;-68
2023/05/01 10:32:31;;;;;;;3.70;3.40;;;;;;;19.53;37.30;100233.85;219044;1256;138803;-69
2023/05/01 10:38:03;;;;;;;2.90;2.70;;;;;;;19.48;38.14;100232.80;218898;1256;139321;-69
2023/05/01 10:43:14;;;;;;;5.00;2.70;;;;;;;19.43;37.42;100229.59;218558;1256;141727;-71
2023/05/01 10:48:37;;;;;;;4.20;3.10;;;;;;;19.39;37.51;100226.48;217431;1260;139171;-70
2023/05/01 10:53:43;;;;;;;3.70;2.10;;;;;;;19.52;37.98;100225.27;217468;1259;140288;-71
2023/05/01 10:59:05;;;;;;;5.90;3.30;;;;;;;19.58;37.21;100216.52;218472;1256;139894;-70
2023/05/01 11:04:20;;;;;;;6.20;2.30;;;;;;;19.68;36.89;100206.23;218855;1257;139263;-70
2023/05/01 11:09:38;;;;;;;7.70;3.20;;;;;;;19.77;36.64;100206.91;217597;1256;138928;-69
2023/05/01 11:15:04;;;;;;;4.20;2.50;;;;;;;19.63;36.08;100197.17;217526;1256;139610;-70
2023/05/01 11:20:33;;;;;;;2.00;1.80;;;;;;;19.65;36.74;100189.04;219838;1256;140007;-70
2023/05/01 11:25:38;;;;;;;3.00;2.10;;;;;;;19.71;37.24;100182.55;218651;1256;140401;-70
2023/05/01 11:30:41;;;;;;;4.70;2.80;;;;;;;19.80;36.43;100175.39;218558;1257;139687;-71
2023/05/01 11:35:56;;;;;;;3.20;2.20;;;;;;;19.50;36.01;100162.91;217452;1259;138910;-70
2023/05/01 11:41:02;;;;;;;5.70;3.40;;;;;;;19.41;36.51;100156.50;217382;1259;138672;-69
2023/05/01 11:46:06;;;;;;;6.70;3.20;;;;;;;19.22;36.10;100149.14;218162;1258;139114;-69
2023/05/01 11:51:12;;;;;;;3.10;2.70;;;;;;;19.17;36.49;100143.23;217573;1257;139097;-70
2023/05/01 11:56:20;;;;;;;4.80;3.00;;;;;;;19.46;36.69;100141.16;217570;1257;138907;-69
2023/05/01 12:01:39;;;;;;;6.30;3.20;;;;;;;19.72;36.96;100134.30;217629;1257;139594;-69
2023/05/01 12:06:45;;;;;;;2.70;2.50;;;;;;;19.84;36.21;100129.58;217513;1260;139686;-68
2023/05/01 12:11:51;;;;;;;6.00;3.20;;;;;;;19.56;36.00;100127.29;218897;1257;139998;-70
2023/05/01 12:16:57;;;;;;;2.20;2.00;;;;;;;19.49;35.79;100117.19;218178;1259;139312;-70
2023/05/01 12:22:05;;;;;;;4.80;2.10;;;;;;;19.57;35.67;100106.42;218615;1260;140260;-69
2023/05/01 12:27:10;;;;;;;4.70;2.20;;;;;;;19.51;35.28;100097.61;217493;1259;138761;-69
2023/05/01 12:32:15;;;;;;;5.40;3.60;;;;;;;19.59;35.73;100094.02;219194;1258;139291;-69
2023/05/01 12:37:19;;;;;;;3.50;2.20;;;;;;;19.74;35.67;100090.40;218341;1257;139809;-68
2023/05/01 12:42:23;;;;;;;5.10;2.80;;;;;;;19.78;34.99;100082.02;218560;1259;140679;-68
2023/05/01 12:47:36;;;;;;;3.90;2.00;;;;;;;19.68;34.94;100080.45;217879;1256;223641;-67
2023/05/01 12:52:40;;;;;;;2.90;1.90;;;;;;;19.68;34.50;100074.02;219172;1260;139963;-68
2023/05/01 12:57:52;;;;;;;3.00;2.00;;;;;;;19.65;34.70;100059.98;219156;1259;139656;-69
2023/05/01 13:03:03;;;;;;;5.90;2.50;;;;;;;19.63;34.70;100051.40;218187;1257;138913;-69
2023/05/01 13:08:07;;;;;;;3.40;2.90;;;;;;;19.62;34.49;100041.67;219255;1260;138998;-69
2023/05/01 13:13:12;;;;;;;3.70;2.20;;;;;;;19.54;34.49;100039.35;219602;1257;372817;-68
2023/05/01 13:18:16;;;;;;;3.40;2.10;;;;;;;19.48;33.73;100034.19;218114;1260;139285;-68
2023/05/01 13:23:20;;;;;;;3.10;2.20;;;;;;;19.41;33.69;100026.41;220024;1260;139198;-69
2023/05/01 13:28:24;;;;;;;4.10;1.60;;;;;;;19.30;33.51;100015.20;218772;1256;141376;-68
2023/05/01 13:33:31;;;;;;;11.60;9.00;;;;;;;19.24;33.38;100016.64;217712;1257;152667;-69
2023/05/01 13:38:43;;;;;;;4.80;3.00;;;;;;;19.25;33.73;100010.63;218507;1257;139012;-69
2023/05/01 13:43:48;;;;;;;2.60;2.20;;;;;;;19.36;33.58;100000.40;218730;1260;151558;-69
2023/05/01 13:48:53;;;;;;;3.50;1.60;;;;;;;19.31;33.84;99989.30;219137;1260;138939;-69
2023/05/01 13:53:57;;;;;;;2.30;1.70;;;;;;;19.23;33.43;99988.16;218423;1256;139803;-69
2023/05/01 13:59:01;;;;;;;2.40;1.70;;;;;;;19.19;33.97;99976.14;217760;1260;141011;-68
2023/05/01 14:04:09;;;;;;;4.60;2.00;;;;;;;19.19;33.55;99972.20;218728;1256;140552;-69
2023/05/01 14:09:17;;;;;;;4.90;1.90;;;;;;;19.23;33.85;99961.56;217838;1257;139936;-69
2023/05/01 14:14:23;;;;;;;18.40;8.70;;;;;;;19.42;33.34;99952.98;217812;1257;138714;-68
2023/05/01 14:19:27;;;;;;;3.70;3.00;;;;;;;19.24;33.34;99953.98;217844;1256;138925;-69
2023/05/01 14:24:39;;;;;;;64.50;39.00;;;;;;;19.19;33.65;99947.34;218411;1260;138687;-70
2023/05/01 14:29:43;;;;;;;42.50;35.80;;;;;;;19.09;32.98;99943.91;218128;1260;139771;-70
2023/05/01 14:34:47;;;;;;;3.20;2.20;;;;;;;18.86;32.20;99947.66;219177;1260;139570;-66
2023/05/01 14:39:51;;;;;;;2.40;1.90;;;;;;;18.79;32.82;99944.70;218829;1258;139571;-67
2023/05/01 14:44:55;;;;;;;3.70;1.40;;;;;;;18.80;32.65;99933.40;218066;1258;138712;-68
2023/05/01 14:49:59;;;;;;;1.70;1.60;;;;;;;18.81;32.62;99921.07;218538;1257;139208;-67
2023/05/01 14:55:03;;;;;;;2.00;1.40;;;;;;;18.83;32.88;99925.70;218009;1256;139086;-71
2023/05/01 15:00:08;;;;;;;2.20;1.50;;;;;;;18.77;32.55;99922.77;219732;1257;150068;-67
2023/05/01 15:05:13;;;;;;;4.30;2.80;;;;;;;18.78;32.99;99911.27;219344;1257;140140;-68
2023/05/01 15:10:22;;;;;;;1.60;1.50;;;;;;;18.88;32.83;99911.66;219247;1257;140121;-72
2023/05/01 15:15:28;;;;;;;4.50;2.20;;;;;;;18.82;32.60;99909.66;218109;1260;139674;-71
2023/05/01 15:20:34;;;;;;;3.70;3.40;;;;;;;18.67;32.64;99904.02;220123;1257;139492;-70
2023/05/01 15:25:42;;;;;;;4.00;2.20;;;;;;;18.52;32.73;99896.89;219576;1257;138803;-68
2023/05/01 15:30:47;;;;;;;4.00;2.10;;;;;;;18.48;32.89;99891.24;218798;1257;138878;-73
2023/05/01 15:35:53;;;;;;;2.80;1.70;;;;;;;18.46;32.85;99886.52;218035;1257;139100;-72
2023/05/01 15:40:59;;;;;;;1.30;1.20;;;;;;;18.39;32.95;99880.90;219056;1260;139731;-70
2023/05/01 15:46:04;;;;;;;5.00;1.70;;;;;;;18.27;32.72;99871.52;219626;1257;139145;-71
2023/05/01 15:51:10;;;;;;;3.20;2.00;;;;;;;18.12;32.43;99872.15;218574;1257;138534;-68
2023/05/01 15:56:16;;;;;;;4.00;1.90;;;;;;;18.05;32.92;99865.68;218566;1260;140769;-70
2023/05/01 16:01:21;;;;;;;3.50;1.60;;;;;;;17.99;32.99;99868.32;217918;1257;139427;-73
2023/05/01 16:06:28;;;;;;;3.00;2.20;;;;;;;17.88;32.77;99868.92;218055;1257;140395;-67
2023/05/01 16:11:35;;;;;;;2.20;1.70;;;;;;;17.70;32.34;99864.39;218131;1257;139614;-68
2023/05/01 16:16:41;;;;;;;2.90;1.90;;;;;;;17.63;33.00;99856.64;218524;1257;139505;-71
2023/05/01 16:21:48;;;;;;;2.50;2.20;;;;;;;17.65;32.97;99851.77;217915;1257;139068;-70
2023/05/01 16:26:55;;;;;;;4.10;2.40;;;;;;;17.64;32.98;99852.88;218040;1256;138739;-68
2023/05/01 16:32:04;;;;;;;6.90;2.20;;;;;;;17.51;32.80;99853.35;217962;1255;139430;-68
2023/05/01 16:37:14;;;;;;;3.10;2.10;;;;;;;17.32;32.60;99850.06;219700;1258;140408;-68
2023/05/01 16:42:22;;;;;;;2.40;1.50;;;;;;;17.11;32.68;99846.48;219223;1257;139178;-70
2023/05/01 16:47:28;;;;;;;1.50;1.40;;;;;;;16.94;32.84;99844.10;219480;1256;141306;-70
2023/05/01 16:52:34;;;;;;;3.40;2.60;;;;;;;16.82;32.99;99845.32;219162;1257;139088;-70
2023/05/01 16:57:42;;;;;;;1.80;1.70;;;;;;;16.67;33.16;99835.23;218827;1256;140119;-70
2023/05/01 17:02:52;;;;;;;2.20;1.80;;;;;;;16.51;33.36;99832.86;220102;1257;139491;-69
2023/05/01 17:07:57;;;;;;;4.20;2.20;;;;;;;16.38;33.55;99829.05;219990;1257;138684;-77
2023/05/01 17:13:06;;;;;;;5.30;2.70;;;;;;;16.39;34.00;99828.79;218018;1257;138800;-73
2023/05/01 17:18:10;;;;;;;4.40;3.60;;;;;;;16.37;34.12;99830.51;217550;1260;139696;-72
2023/05/01 17:23:15;;;;;;;8.30;4.00;;;;;;;16.23;34.45;99830.98;218683;1257;138722;-74
2023/05/01 17:28:19;;;;;;;18.90;8.20;;;;;;;16.02;34.99;99833.20;218219;1258;138773;-68
2023/05/01 17:33:23;;;;;;;11.70;4.90;;;;;;;15.80;35.38;99828.39;217161;1257;138986;-68
2023/05/01 17:38:27;;;;;;;7.40;3.60;;;;;;;15.59;35.71;99824.67;218310;1258;139369;-70
2023/05/01 17:43:31;;;;;;;3.90;2.40;;;;;;;15.40;36.13;99823.25;217391;1260;140126;-70
2023/05/01 17:48:35;;;;;;;5.20;2.60;;;;;;;15.18;36.43;99819.16;217119;1257;139067;-69
2023/05/01 17:53:39;;;;;;;3.10;2.50;;;;;;;14.99;36.95;99818.16;217396;1260;138750;-68
2023/05/01 17:58:45;;;;;;;4.40;2.70;;;;;;;14.79;37.01;99822.89;217391;1257;139302;-68
2023/05/01 18:03:50;;;;;;;5.80;2.90;;;;;;;14.60;37.43;99822.95;217220;1256;139537;-69
2023/05/01 18:08:56;;;;;;;4.70;2.90;;;;;;;14.40;37.44;99819.30;217347;1256;138796;-67
2023/05/01 18:14:05;;;;;;;5.90;3.50;;;;;;;14.21;38.11;99818.19;218633;1256;139625;-67
2023/05/01 18:19:25;;;;;;;6.40;4.40;;;;;;;14.01;38.49;99815.73;217648;1256;139261;-68
2023/05/01 18:24:39;;;;;;;6.10;3.20;;;;;;;13.85;38.90;99815.79;217322;1260;139128;-69
2023/05/01 18:29:58;;;;;;;7.40;5.60;;;;;;;13.68;39.21;99811.23;218400;1258;138989;-68
2023/05/01 18:35:04;;;;;;;11.50;5.90;;;;;;;13.50;40.20;99811.53;218721;1257;139464;-68
2023/05/01 18:40:09;;;;;;;10.90;7.30;;;;;;;13.33;40.76;99811.78;220212;1256;139325;-69
2023/05/01 18:45:17;;;;;;;11.90;6.20;;;;;;;13.17;40.99;99814.20;220073;1256;139981;-67
2023/05/01 18:50:24;;;;;;;9.40;5.40;;;;;;;12.99;41.63;99816.05;219006;1257;140783;-67
2023/05/01 18:55:29;;;;;;;4.50;3.20;;;;;;;12.78;42.92;99813.73;220062;1257;139108;-68
2023/05/01 19:00:33;;;;;;;5.60;3.80;;;;;;;12.56;43.73;99813.16;220154;1257;139319;-67
2023/05/01 19:05:41;;;;;;;4.00;3.30;;;;;;;12.34;44.33;99813.74;220039;1257;139491;-68
2023/05/01 19:10:45;;;;;;;5.60;4.20;;;;;;;12.12;44.81;99818.59;218260;1257;140202;-70
2023/05/01 19:15:52;;;;;;;9.20;5.00;;;;;;;11.95;45.70;99818.61;219302;1257;139498;-67
2023/05/01 19:20:57;;;;;;;6.70;4.40;;;;;;;11.77;46.17;99817.17;220015;1258;140795;-67
2023/05/01 19:26:04;;;;;;;5.10;4.50;;;;;;;11.62;46.86;99817.52;217608;1259;138842;-66
2023/05/01 19:31:10;;;;;;;7.40;4.50;;;;;;;11.47;46.63;99814.25;217212;1258;138997;-70
2023/05/01 19:36:17;;;;;;;9.80;5.30;;;;;;;11.33;47.08;99814.30;218651;1257;139401;-72
2023/05/01 19:41:23;;;;;;;7.90;5.90;;;;;;;11.18;47.12;99812.85;217414;1260;139118;-70
2023/05/01 19:46:28;;;;;;;9.10;4.70;;;;;;;10.98;47.05;99813.08;217748;1257;139081;-68
2023/05/01 19:51:33;;;;;;;9.90;5.00;;;;;;;10.82;47.16;99810.23;218752;1257;139670;-68
2023/05/01 19:56:40;;;;;;;6.30;5.50;;;;;;;10.76;47.18;99810.91;217984;1257;139072;-69
2023/05/01 20:01:56;;;;;;;11.00;6.30;;;;;;;10.71;47.34;99808.30;217830;1257;139400;-70
2023/05/01 20:07:05;;;;;;;10.20;6.10;;;;;;;10.63;47.47;99803.59;218456;1257;140211;-69
2023/05/01 20:12:10;;;;;;;13.70;6.70;;;;;;;10.55;47.74;99801.27;218626;1256;139910;-69
2023/05/01 20:17:16;;;;;;;9.30;5.90;;;;;;;10.52;48.08;99802.39;218272;1257;139122;-68
2023/05/01 20:22:19;;;;;;;13.10;6.40;;;;;;;10.46;48.31;99804.59;218438;1259;141648;-68
2023/05/01 20:27:26;;;;;;;11.30;7.20;;;;;;;10.35;48.64;99798.22;217665;1257;139197;-68
2023/05/01 20:32:41;;;;;;;13.80;9.00;;;;;;;10.25;48.62;99790.10;219985;1256;139921;-69
2023/05/01 20:37:47;;;;;;;15.90;8.50;;;;;;;10.18;48.72;99788.04;220285;1256;143917;-69
2023/05/01 20:42:51;;;;;;;13.00;7.20;;;;;;;10.08;48.72;99791.38;217176;1257;139809;-66
2023/05/01 20:47:57;;;;;;;14.40;8.40;;;;;;;9.99;49.06;99789.86;220017;1258;139919;-68
2023/05/01 20:53:01;;;;;;;14.20;8.80;;;;;;;9.88;49.07;99788.67;220058;1256;139065;-68
2023/05/01 20:58:05;;;;;;;15.80;8.10;;;;;;;9.81;49.37;99786.27;220090;1257;139737;-67
2023/05/01 21:03:09;;;;;;;10.30;7.20;;;;;;;9.76;50.09;99784.47;219520;1257;139552;-69
2023/05/01 21:08:14;;;;;;;12.80;6.00;;;;;;;9.71;50.07;99790.36;218720;1257;139310;-69
2023/05/01 21:13:19;;;;;;;9.40;5.50;;;;;;;9.67;50.23;99792.27;217020;1257;139001;-67
2023/05/01 21:18:26;;;;;;;11.60;5.60;;;;;;;9.63;50.44;99789.95;218859;1257;140083;-67
2023/05/01 21:23:29;;;;;;;6.90;4.70;;;;;;;9.60;50.39;99789.46;217913;1257;139123;-67
2023/05/01 21:28:33;;;;;;;6.60;4.00;;;;;;;9.57;50.59;99794.66;216819;1257;138710;-68
2023/05/01 21:33:39;;;;;;;4.30;3.20;;;;;;;9.56;50.52;99794.67;218103;1258;139490;-68
2023/05/01 21:38:44;;;;;;;7.80;4.60;;;;;;;9.56;50.62;99785.91;217500;1258;138904;-67
2023/05/01 21:43:49;;;;;;;6.80;4.70;;;;;;;9.61;50.85;99787.90;216943;1258;162863;-66
2023/05/01 21:48:55;;;;;;;8.20;4.10;;;;;;;9.68;50.95;99780.05;217850;1257;138676;-67
2023/05/01 21:54:01;;;;;;;6.60;4.10;;;;;;;9.74;51.00;99782.09;217633;1257;139145;-70
2023/05/01 21:59:05;;;;;;;4.80;4.30;;;;;;;9.84;50.88;99785.50;217970;1257;140724;-66
2023/05/01 22:04:13;;;;;;;5.00;3.60;;;;;;;9.89;50.83;99784.84;217413;1257;139964;-70
2023/05/01 22:09:18;;;;;;;4.50;4.10;;;;;;;9.98;50.77;99785.90;218268;1257;138554;-70
2023/05/01 22:14:23;;;;;;;7.90;5.10;;;;;;;9.99;50.69;99783.59;218093;1257;140682;-69
2023/05/01 22:19:43;;;;;;;10.70;5.50;;;;;;;10.04;50.67;99783.14;219260;1257;139831;-69
2023/05/01 22:24:49;;;;;;;9.60;4.20;;;;;;;10.10;50.49;99778.14;217557;1258;139670;-68
2023/05/01 22:29:54;;;;;;;7.10;3.90;;;;;;;10.14;50.41;99776.33;218102;1257;141960;-68
2023/05/01 22:35:01;;;;;;;5.40;4.00;;;;;;;10.18;50.53;99775.08;218581;1256;138999;-67
2023/05/01 22:40:07;;;;;;;6.30;4.20;;;;;;;10.20;50.44;99772.19;219231;1256;139823;-67
2023/05/01 22:45:13;;;;;;;5.60;3.70;;;;;;;10.21;50.32;99770.76;220209;1259;140444;-67
2023/05/01 22:50:17;;;;;;;7.50;3.50;;;;;;;10.23;50.32;99765.38;220500;1256;140595;-67
2023/05/01 22:55:22;;;;;;;5.50;3.60;;;;;;;10.26;50.25;99768.86;220153;1256;139235;-67
2023/05/01 23:00:26;;;;;;;5.50;3.40;;;;;;;10.30;50.19;99762.94;219176;1257;139145;-68
2023/05/01 23:05:30;;;;;;;5.70;3.90;;;;;;;10.30;50.38;99761.61;219838;1257;139541;-68
2023/05/01 23:10:42;;;;;;;8.70;4.60;;;;;;;10.31;50.48;99759.55;217906;1257;139539;-67
2023/05/01 23:15:48;;;;;;;6.40;3.50;;;;;;;10.31;50.36;99760.95;217762;1259;138762;-66
2023/05/01 23:20:54;;;;;;;7.00;3.80;;;;;;;10.31;50.53;99756.19;217651;1257;138669;-67